sensor_id;sensor_type;location;lat;lon;timestamp;pressure;altitude;pressure_sealevel;temperature;humidity
21086;BME280;34247;50.064;19.970;2023-04-24T00:00:32;98462.09;;;16.27;48.41
21086;BME280;34247;50.064;19.970;2023-04-24T00:01:37;98466.59;;;16.26;48.07
21086;BME280;34247;50.064;19.970;2023-04-24T00:02:44;98468.28;;;16.27;48.41
21086;BME280;34247;50.064;19.970;2023-04-24T00:03:50;98455.25;;;16.33;47.99
21086;BME280;34247;50.064;19.970;2023-04-24T00:04:58;98461.25;;;16.26;48.83
21086;BME280;34247;50.064;19.970;2023-04-24T00:06:06;98459.56;;;16.25;48.56
21086;BME280;34247;50.064;19.970;2023-04-24T00:07:15;98459.75;;;16.24;48.97
21086;BME280;34247;50.064;19.970;2023-04-24T00:08:20;98455.19;;;16.16;50.17
21086;BME280;34247;50.064;19.970;2023-04-24T00:09:27;98454.34;;;16.16;49.72
21086;BME280;34247;50.064;19.970;2023-04-24T00:10:31;98460.38;;;16.18;49.62
21086;BME280;34247;50.064;19.970;2023-04-24T00:11:38;98459.34;;;16.11;50.86
21086;BME280;34247;50.064;19.970;2023-04-24T00:12:43;98455.66;;;16.12;50.54
21086;BME280;34247;50.064;19.970;2023-04-24T00:13:47;98456.50;;;16.12;51.61
21086;BME280;34247;50.064;19.970;2023-04-24T00:14:52;98462.31;;;16.08;51.66
21086;BME280;34247;50.064;19.970;2023-04-24T00:15:56;98451.09;;;16.04;51.50
21086;BME280;34247;50.064;19.970;2023-04-24T00:17:03;98450.25;;;16.04;51.32
21086;BME280;34247;50.064;19.970;2023-04-24T00:18:08;98453.16;;;16.10;50.36
21086;BME280;34247;50.064;19.970;2023-04-24T00:19:12;98454.78;;;16.03;52.49
21086;BME280;34247;50.064;19.970;2023-04-24T00:20:18;98455.75;;;15.94;52.50
21086;BME280;34247;50.064;19.970;2023-04-24T00:21:23;98458.59;;;16.00;51.92
21086;BME280;34247;50.064;19.970;2023-04-24T00:22:30;98447.38;;;15.97;52.19
21086;BME280;34247;50.064;19.970;2023-04-24T00:23:36;98452.28;;;16.02;51.50
21086;BME280;34247;50.064;19.970;2023-04-24T00:24:40;98451.09;;;16.04;51.49
21086;BME280;34247;50.064;19.970;2023-04-24T00:25:46;98446.91;;;16.02;51.86
21086;BME280;34247;50.064;19.970;2023-04-24T00:26:50;98452.28;;;16.02;52.07
21086;BME280;34247;50.064;19.970;2023-04-24T00:27:54;98453.19;;;15.92;52.67
21086;BME280;34247;50.064;19.970;2023-04-24T00:28:57;98456.59;;;15.94;52.22
21086;BME280;34247;50.064;19.970;2023-04-24T00:30:05;98450.06;;;15.97;51.51
21086;BME280;34247;50.064;19.970;2023-04-24T00:31:09;98445.72;;;15.96;52.25
21086;BME280;34247;50.064;19.970;2023-04-24T00:32:16;98449.34;;;15.87;53.19
21086;BME280;34247;50.064;19.970;2023-04-24T00:33:25;98440.94;;;15.82;53.22
21086;BME280;34247;50.064;19.970;2023-04-24T00:34:32;98441.09;;;15.80;53.37
21086;BME280;34247;50.064;19.970;2023-04-24T00:35:36;98443.06;;;15.78;53.71
21086;BME280;34247;50.064;19.970;2023-04-24T00:36:42;98435.75;;;15.80;53.70
21086;BME280;34247;50.064;19.970;2023-04-24T00:37:47;98436.75;;;15.79;53.27
21086;BME280;34247;50.064;19.970;2023-04-24T00:38:54;98441.41;;;15.77;53.96
21086;BME280;34247;50.064;19.970;2023-04-24T00:39:59;98439.72;;;15.76;53.45
21086;BME280;34247;50.064;19.970;2023-04-24T00:41:04;98434.38;;;15.76;53.87
21086;BME280;34247;50.064;19.970;2023-04-24T00:42:11;98431.19;;;15.73;53.93
21086;BME280;34247;50.064;19.970;2023-04-24T00:43:18;98437.22;;;15.75;53.40
21086;BME280;34247;50.064;19.970;2023-04-24T00:44:27;98437.06;;;15.76;53.42
21086;BME280;34247;50.064;19.970;2023-04-24T00:45:36;98441.91;;;15.73;54.49
21086;BME280;34247;50.064;19.970;2023-04-24T00:46:43;98437.53;;;15.71;53.40
21086;BME280;34247;50.064;19.970;2023-04-24T00:47:49;98438.31;;;15.64;54.68
21086;BME280;34247;50.064;19.970;2023-04-24T00:48:59;98436.09;;;15.59;54.83
21086;BME280;34247;50.064;19.970;2023-04-24T00:50:05;98434.88;;;15.54;55.39
21086;BME280;34247;50.064;19.970;2023-04-24T00:51:10;98435.97;;;15.43;55.86
21086;BME280;34247;50.064;19.970;2023-04-24T00:52:16;98432.31;;;15.44;56.14
21086;BME280;34247;50.064;19.970;2023-04-24T00:53:21;98437.94;;;15.41;56.04
21086;BME280;34247;50.064;19.970;2023-04-24T00:54:27;98428.09;;;15.41;56.01
21086;BME280;34247;50.064;19.970;2023-04-24T00:55:33;98437.66;;;15.44;55.88
21086;BME280;34247;50.064;19.970;2023-04-24T00:56:39;98430.69;;;15.51;55.14
21086;BME280;34247;50.064;19.970;2023-04-24T00:57:45;98425.28;;;15.43;56.02
21086;BME280;34247;50.064;19.970;2023-04-24T00:58:50;98428.31;;;15.48;55.30
21086;BME280;34247;50.064;19.970;2023-04-24T00:59:56;98434.59;;;15.39;56.72
21086;BME280;34247;50.064;19.970;2023-04-24T01:01:02;98429.03;;;15.32;56.84
21086;BME280;34247;50.064;19.970;2023-04-24T01:02:38;98433.88;;;15.29;57.38
21086;BME280;34247;50.064;19.970;2023-04-24T01:03:44;98422.63;;;15.25;57.22
21086;BME280;34247;50.064;19.970;2023-04-24T01:04:51;98425.47;;;15.24;57.19
21086;BME280;34247;50.064;19.970;2023-04-24T01:05:56;98425.47;;;15.24;56.84
21086;BME280;34247;50.064;19.970;2023-04-24T01:07:00;98425.31;;;15.25;57.09
21086;BME280;34247;50.064;19.970;2023-04-24T01:08:06;98429.19;;;15.31;56.42
21086;BME280;34247;50.064;19.970;2023-04-24T01:09:12;98427.81;;;15.27;57.02
21086;BME280;34247;50.064;19.970;2023-04-24T01:10:17;98422.84;;;15.32;56.30
21086;BME280;34247;50.064;19.970;2023-04-24T01:11:22;98417.00;;;15.28;56.53
21086;BME280;34247;50.064;19.970;2023-04-24T01:12:26;98426.81;;;15.28;56.36
21086;BME280;34247;50.064;19.970;2023-04-24T01:13:32;98427.97;;;15.25;56.79
21086;BME280;34247;50.064;19.970;2023-04-24T01:14:37;98424.09;;;15.20;57.43
21086;BME280;34247;50.064;19.970;2023-04-24T01:15:42;98425.03;;;15.10;57.99
21086;BME280;34247;50.064;19.970;2023-04-24T01:16:46;98420.06;;;15.15;57.47
21086;BME280;34247;50.064;19.970;2023-04-24T01:17:52;98420.22;;;15.14;57.53
21086;BME280;34247;50.064;19.970;2023-04-24T01:19:00;98420.50;;;15.11;58.04
21086;BME280;34247;50.064;19.970;2023-04-24T01:20:06;98420.13;;;15.06;58.44
21086;BME280;34247;50.064;19.970;2023-04-24T01:21:18;98419.22;;;14.97;59.04
21086;BME280;34247;50.064;19.970;2023-04-24T01:22:27;98422.59;;;14.99;58.96
21086;BME280;34247;50.064;19.970;2023-04-24T01:24:06;98418.53;;;14.95;58.95
21086;BME280;34247;50.064;19.970;2023-04-24T01:25:28;98413.34;;;14.94;59.20
21086;BME280;34247;50.064;19.970;2023-04-24T01:26:46;98418.16;;;14.90;59.76
21086;BME280;34247;50.064;19.970;2023-04-24T01:27:54;98415.63;;;14.88;59.87
21086;BME280;34247;50.064;19.970;2023-04-24T01:29:01;98415.78;;;14.87;60.30
21086;BME280;34247;50.064;19.970;2023-04-24T01:30:07;98408.91;;;14.84;60.01
21086;BME280;34247;50.064;19.970;2023-04-24T01:31:12;98414.47;;;14.91;59.36
21086;BME280;34247;50.064;19.970;2023-04-24T01:32:28;98413.13;;;14.87;60.53
21086;BME280;34247;50.064;19.970;2023-04-24T01:33:36;98416.41;;;14.81;60.08
21086;BME280;34247;50.064;19.970;2023-04-24T01:34:46;98408.00;;;14.76;60.63
21086;BME280;34247;50.064;19.970;2023-04-24T01:35:50;98411.44;;;14.68;60.90
21086;BME280;34247;50.064;19.970;2023-04-24T01:36:54;98404.81;;;14.72;60.24
21086;BME280;34247;50.064;19.970;2023-04-24T01:37:59;98404.25;;;14.69;60.77
21086;BME280;34247;50.064;19.970;2023-04-24T01:39:05;98408.25;;;14.65;61.27
21086;BME280;34247;50.064;19.970;2023-04-24T01:40:10;98406.41;;;14.65;61.42
21086;BME280;34247;50.064;19.970;2023-04-24T01:41:14;98402.56;;;14.68;60.92
21086;BME280;34247;50.064;19.970;2023-04-24T01:42:18;98403.06;;;14.63;61.17
21086;BME280;34247;50.064;19.970;2023-04-24T01:43:24;98395.56;;;14.67;61.10
21086;BME280;34247;50.064;19.970;2023-04-24T01:44:28;98406.84;;;14.60;61.98
21086;BME280;34247;50.064;19.970;2023-04-24T01:45:32;98398.44;;;14.55;62.11
21086;BME280;34247;50.064;19.970;2023-04-24T01:46:37;98403.06;;;14.63;61.20
21086;BME280;34247;50.064;19.970;2023-04-24T01:47:43;98399.06;;;14.67;60.80
21086;BME280;34247;50.064;19.970;2023-04-24T01:48:53;98391.66;;;14.61;61.38
21086;BME280;34247;50.064;19.970;2023-04-24T01:49:59;98399.16;;;14.57;61.99
21086;BME280;34247;50.064;19.970;2023-04-24T01:51:03;98386.09;;;14.54;62.07
21086;BME280;34247;50.064;19.970;2023-04-24T01:52:07;98387.47;;;14.58;61.51
21086;BME280;34247;50.064;19.970;2023-04-24T01:53:11;98391.13;;;14.57;62.22
21086;BME280;34247;50.064;19.970;2023-04-24T01:54:16;98389.16;;;14.59;60.97
21086;BME280;34247;50.064;19.970;2023-04-24T01:55:20;98385.41;;;14.52;62.63
21086;BME280;34247;50.064;19.970;2023-04-24T01:56:29;98386.00;;;14.46;63.09
21086;BME280;34247;50.064;19.970;2023-04-24T01:57:36;98388.88;;;14.35;63.32
21086;BME280;34247;50.064;19.970;2023-04-24T01:58:41;98390.91;;;14.41;62.70
21086;BME280;34247;50.064;19.970;2023-04-24T01:59:45;98384.00;;;14.48;61.62
21086;BME280;34247;50.064;19.970;2023-04-24T02:00:49;98381.63;;;14.45;62.17
21086;BME280;34247;50.064;19.970;2023-04-24T02:01:54;98388.69;;;14.46;61.60
21086;BME280;34247;50.064;19.970;2023-04-24T02:02:58;98386.88;;;14.37;61.50
21086;BME280;34247;50.064;19.970;2023-04-24T03:09:01;98335.59;;;13.23;68.81
21086;BME280;34247;50.064;19.970;2023-04-24T03:10:10;98335.06;;;13.20;68.99
21086;BME280;34247;50.064;19.970;2023-04-24T03:11:24;98338.41;;;13.22;68.85
21086;BME280;34247;50.064;19.970;2023-04-24T03:12:29;98340.38;;;13.20;69.39
21086;BME280;34247;50.064;19.970;2023-04-24T03:13:36;98335.44;;;13.15;70.60
21086;BME280;34247;50.064;19.970;2023-04-24T03:14:41;98341.22;;;13.20;69.41
21086;BME280;34247;50.064;19.970;2023-04-24T03:15:50;98341.91;;;13.22;69.24
21086;BME280;34247;50.064;19.970;2023-04-24T03:17:06;98346.25;;;13.23;69.26
21086;BME280;34247;50.064;19.970;2023-04-24T03:18:17;98343.28;;;13.17;69.78
21086;BME280;34247;50.064;19.970;2023-04-24T03:19:22;98347.09;;;13.24;69.38
21086;BME280;34247;50.064;19.970;2023-04-24T03:20:32;98343.84;;;13.30;68.54
21086;BME280;34247;50.064;19.970;2023-04-24T03:21:36;98341.75;;;13.24;69.84
21086;BME280;34247;50.064;19.970;2023-04-24T03:22:48;98343.16;;;13.28;68.87
21086;BME280;34247;50.064;19.970;2023-04-24T03:24:09;98341.50;;;13.27;69.36
21086;BME280;34247;50.064;19.970;2023-04-24T03:25:20;98340.78;;;13.25;69.45
21086;BME280;34247;50.064;19.970;2023-04-24T03:26:55;98343.16;;;13.28;68.98
21086;BME280;34247;50.064;19.970;2023-04-24T03:28:14;98329.53;;;13.31;68.44
21086;BME280;34247;50.064;19.970;2023-04-24T03:29:32;98339.22;;;13.32;68.00
21086;BME280;34247;50.064;19.970;2023-04-24T03:30:39;98341.19;;;13.30;68.69
21086;BME280;34247;50.064;19.970;2023-04-24T03:31:52;98339.66;;;13.28;69.05
21086;BME280;34247;50.064;19.970;2023-04-24T03:33:01;98344.16;;;13.27;69.08
21086;BME280;34247;50.064;19.970;2023-04-24T03:34:06;98343.69;;;13.32;68.46
21086;BME280;34247;50.064;19.970;2023-04-24T03:35:10;98340.66;;;13.27;69.15
21086;BME280;34247;50.064;19.970;2023-04-24T03:36:14;98341.50;;;13.27;69.19
21086;BME280;34247;50.064;19.970;2023-04-24T03:37:18;98335.84;;;13.30;68.82
21086;BME280;34247;50.064;19.970;2023-04-24T03:38:22;98339.25;;;13.22;69.31
21086;BME280;34247;50.064;19.970;2023-04-24T03:39:26;98340.38;;;13.20;69.50
21086;BME280;34247;50.064;19.970;2023-04-24T03:40:31;98337.56;;;13.21;69.28
21086;BME280;34247;50.064;19.970;2023-04-24T03:41:40;98338.94;;;13.16;69.38
21086;BME280;34247;50.064;19.970;2023-04-24T03:42:44;98334.75;;;13.13;69.72
21086;BME280;34247;50.064;19.970;2023-04-24T03:43:48;98336.44;;;13.14;69.70
21086;BME280;34247;50.064;19.970;2023-04-24T03:44:54;98344.84;;;13.19;69.57
21086;BME280;34247;50.064;19.970;2023-04-24T03:45:58;98341.06;;;13.22;69.19
21086;BME280;34247;50.064;19.970;2023-04-24T03:47:02;98342.59;;;13.15;69.66
21086;BME280;34247;50.064;19.970;2023-04-24T03:48:20;98338.81;;;13.08;70.39
21086;BME280;34247;50.064;19.970;2023-04-24T03:49:32;98343.84;;;13.11;70.07
21086;BME280;34247;50.064;19.970;2023-04-24T03:50:41;98342.06;;;13.11;70.08
21086;BME280;34247;50.064;19.970;2023-04-24T03:52:12;98342.59;;;13.15;69.34
21086;BME280;34247;50.064;19.970;2023-04-24T03:53:22;98345.84;;;13.18;69.05
21086;BME280;34247;50.064;19.970;2023-04-24T03:54:34;98343.47;;;13.06;69.86
21086;BME280;34247;50.064;19.970;2023-04-24T03:55:41;98338.81;;;13.08;69.52
21086;BME280;34247;50.064;19.970;2023-04-24T03:56:47;98347.78;;;13.16;68.67
21086;BME280;34247;50.064;19.970;2023-04-24T03:58:04;98345.69;;;13.10;68.66
21086;BME280;34247;50.064;19.970;2023-04-24T03:59:10;98341.91;;;13.03;69.99
21086;BME280;34247;50.064;19.970;2023-04-24T04:00:19;98345.44;;;13.04;69.29
21086;BME280;34247;50.064;19.970;2023-04-24T04:01:40;98345.72;;;13.01;69.28
21086;BME280;34247;50.064;19.970;2023-04-24T04:02:55;98338.28;;;12.94;69.62
21086;BME280;34247;50.064;19.970;2023-04-24T04:04:27;98336.88;;;13.00;69.61
21086;BME280;34247;50.064;19.970;2023-04-24T04:05:46;98335.91;;;13.01;68.52
21086;BME280;34247;50.064;19.970;2023-04-24T04:07:05;98339.13;;;13.05;67.87
21086;BME280;34247;50.064;19.970;2023-04-24T04:08:14;98342.78;;;13.04;66.69
21086;BME280;34247;50.064;19.970;2023-04-24T04:09:26;98339.81;;;13.07;65.84
21086;BME280;34247;50.064;19.970;2023-04-24T04:10:30;98335.31;;;13.07;65.48
21086;BME280;34247;50.064;19.970;2023-04-24T04:11:34;98340.34;;;13.10;65.69
21086;BME280;34247;50.064;19.970;2023-04-24T04:12:41;98345.56;;;13.12;65.18
21086;BME280;34247;50.064;19.970;2023-04-24T04:13:45;98338.94;;;13.16;64.46
21086;BME280;34247;50.064;19.970;2023-04-24T04:14:52;98343.03;;;13.10;64.83
21086;BME280;34247;50.064;19.970;2023-04-24T04:15:56;98340.22;;;13.12;65.15
21086;BME280;34247;50.064;19.970;2023-04-24T04:17:03;98343.28;;;13.17;64.18
21086;BME280;34247;50.064;19.970;2023-04-24T04:18:20;98341.47;;;13.17;64.73
21086;BME280;34247;50.064;19.970;2023-04-24T04:19:40;98347.09;;;13.24;64.18
21086;BME280;34247;50.064;19.970;2023-04-24T04:20:57;98346.09;;;13.25;64.61
21086;BME280;34247;50.064;19.970;2023-04-24T04:22:06;98336.16;;;13.27;62.74
21086;BME280;34247;50.064;19.970;2023-04-24T04:23:11;98335.59;;;13.23;62.06
21086;BME280;34247;50.064;19.970;2023-04-24T04:24:19;98343.84;;;13.30;62.92
21086;BME280;34247;50.064;19.970;2023-04-24T04:25:46;98338.63;;;13.38;62.58
21086;BME280;34247;50.064;19.970;2023-04-24T04:26:52;98342.69;;;13.42;61.94
21086;BME280;34247;50.064;19.970;2023-04-24T04:28:01;98334.72;;;13.42;60.60
21086;BME280;34247;50.064;19.970;2023-04-24T04:29:05;98342.69;;;13.42;60.65
21086;BME280;34247;50.064;19.970;2023-04-24T04:30:14;98335.53;;;13.43;60.87
21086;BME280;34247;50.064;19.970;2023-04-24T04:31:46;98338.63;;;13.48;60.52
21086;BME280;34247;50.064;19.970;2023-04-24T04:32:58;98328.22;;;13.55;60.34
21086;BME280;34247;50.064;19.970;2023-04-24T04:34:18;98321.91;;;13.56;59.92
21086;BME280;34247;50.064;19.970;2023-04-24T04:35:31;98331.25;;;13.60;60.48
21086;BME280;34247;50.064;19.970;2023-04-24T04:36:44;98330.41;;;13.59;59.91
21086;BME280;34247;50.064;19.970;2023-04-24T04:37:53;98323.25;;;13.60;60.01
21086;BME280;34247;50.064;19.970;2023-04-24T04:39:00;98328.31;;;13.63;59.18
21086;BME280;34247;50.064;19.970;2023-04-24T04:40:05;98329.41;;;13.70;59.01
21086;BME280;34247;50.064;19.970;2023-04-24T04:41:15;98337.94;;;13.73;58.89
21086;BME280;34247;50.064;19.970;2023-04-24T04:42:34;98338.50;;;13.77;58.48
21086;BME280;34247;50.064;19.970;2023-04-24T04:43:53;98329.50;;;13.78;58.25
21086;BME280;34247;50.064;19.970;2023-04-24T04:45:09;98329.34;;;13.79;58.16
21086;BME280;34247;50.064;19.970;2023-04-24T04:46:15;98324.44;;;13.85;58.05
21086;BME280;34247;50.064;19.970;2023-04-24T04:47:32;98326.09;;;13.86;57.17
21086;BME280;34247;50.064;19.970;2023-04-24T04:48:39;98332.28;;;13.86;57.01
21086;BME280;34247;50.064;19.970;2023-04-24T04:49:44;98329.59;;;13.86;57.80
21086;BME280;34247;50.064;19.970;2023-04-24T04:50:49;98327.34;;;13.91;57.08
21086;BME280;34247;50.064;19.970;2023-04-24T04:51:52;98325.19;;;13.95;56.65
21086;BME280;34247;50.064;19.970;2023-04-24T04:52:58;98326.03;;;13.95;56.85
21086;BME280;34247;50.064;19.970;2023-04-24T04:54:05;98324.03;;;13.97;56.77
21086;BME280;34247;50.064;19.970;2023-04-24T04:55:09;98330.09;;;13.99;56.50
21086;BME280;34247;50.064;19.970;2023-04-24T04:56:13;98326.28;;;14.02;55.95
21086;BME280;34247;50.064;19.970;2023-04-24T04:57:18;98321.50;;;14.05;56.03
21086;BME280;34247;50.064;19.970;2023-04-24T04:58:23;98327.50;;;14.07;55.94
21086;BME280;34247;50.064;19.970;2023-04-24T04:59:28;98328.88;;;14.12;55.95
21086;BME280;34247;50.064;19.970;2023-04-24T05:00:32;98327.75;;;14.14;56.14
21086;BME280;34247;50.064;19.970;2023-04-24T05:01:39;98327.59;;;14.16;55.93
21086;BME280;34247;50.064;19.970;2023-04-24T05:03:10;98327.00;;;14.22;56.09
21086;BME280;34247;50.064;19.970;2023-04-24T05:04:24;98330.06;;;14.27;56.00
21086;BME280;34247;50.064;19.970;2023-04-24T05:05:29;98329.59;;;14.31;56.19
21086;BME280;34247;50.064;19.970;2023-04-24T05:06:33;98331.16;;;14.34;55.96
21086;BME280;34247;50.064;19.970;2023-04-24T05:07:38;98336.47;;;14.34;55.76
21086;BME280;34247;50.064;19.970;2023-04-24T05:08:42;98325.50;;;14.37;55.08
21086;BME280;34247;50.064;19.970;2023-04-24T05:09:47;98334.00;;;14.41;54.99
21086;BME280;34247;50.064;19.970;2023-04-24T05:10:51;98329.38;;;14.43;54.93
21086;BME280;34247;50.064;19.970;2023-04-24T05:11:56;98334.44;;;14.46;55.01
21086;BME280;34247;50.064;19.970;2023-04-24T05:13:00;98327.25;;;14.46;55.26
21086;BME280;34247;50.064;19.970;2023-04-24T05:14:05;98333.28;;;14.48;55.29
21086;BME280;34247;50.064;19.970;2023-04-24T05:15:11;98329.66;;;14.49;54.95
21086;BME280;34247;50.064;19.970;2023-04-24T05:16:17;98327.88;;;14.58;53.81
21086;BME280;34247;50.064;19.970;2023-04-24T05:17:21;98335.13;;;14.66;53.86
21086;BME280;34247;50.064;19.970;2023-04-24T05:18:25;98327.34;;;14.72;53.06
21086;BME280;34247;50.064;19.970;2023-04-24T05:19:29;98326.25;;;14.83;53.21
21086;BME280;34247;50.064;19.970;2023-04-24T05:20:37;98317.69;;;14.97;52.86
21086;BME280;34247;50.064;19.970;2023-04-24T05:21:42;98321.13;;;15.07;52.09
21086;BME280;34247;50.064;19.970;2023-04-24T05:22:46;98316.25;;;15.29;52.29
21086;BME280;34247;50.064;19.970;2023-04-24T05:23:50;98320.03;;;15.52;52.08
21086;BME280;34247;50.064;19.970;2023-04-24T05:24:55;98323.50;;;15.70;51.12
21086;BME280;34247;50.064;19.970;2023-04-24T05:26:02;98319.94;;;15.96;50.28
21086;BME280;34247;50.064;19.970;2023-04-24T05:27:09;98321.53;;;16.23;50.19
21086;BME280;34247;50.064;19.970;2023-04-24T05:28:13;98319.53;;;16.49;49.06
21086;BME280;34247;50.064;19.970;2023-04-24T05:29:18;98315.56;;;16.70;46.97
21086;BME280;34247;50.064;19.970;2023-04-24T05:30:26;98311.03;;;16.87;46.44
21086;BME280;34247;50.064;19.970;2023-04-24T05:31:31;98319.41;;;17.08;46.48
21086;BME280;34247;50.064;19.970;2023-04-24T05:32:35;98321.91;;;17.26;46.06
21086;BME280;34247;50.064;19.970;2023-04-24T05:33:39;98317.69;;;17.48;45.68
21086;BME280;34247;50.064;19.970;2023-04-24T05:34:47;98316.94;;;17.70;44.40
21086;BME280;34247;50.064;19.970;2023-04-24T05:35:51;98316.19;;;17.92;44.79
21086;BME280;34247;50.064;19.970;2023-04-24T05:36:55;98315.22;;;18.16;44.37
21086;BME280;34247;50.064;19.970;2023-04-24T05:37:59;98315.38;;;18.23;41.77
21086;BME280;34247;50.064;19.970;2023-04-24T05:39:03;98310.75;;;18.40;42.75
21086;BME280;34247;50.064;19.970;2023-04-24T05:40:11;98312.41;;;18.64;43.08
21086;BME280;34247;50.064;19.970;2023-04-24T05:41:15;98306.28;;;18.78;41.79
21086;BME280;34247;50.064;19.970;2023-04-24T05:42:19;98313.91;;;18.89;41.77
21086;BME280;34247;50.064;19.970;2023-04-24T05:43:24;98311.38;;;19.11;41.03
21086;BME280;34247;50.064;19.970;2023-04-24T05:44:28;98311.41;;;19.40;40.80
21086;BME280;34247;50.064;19.970;2023-04-24T05:45:32;98312.94;;;19.58;39.92
21086;BME280;34247;50.064;19.970;2023-04-24T05:46:38;98308.22;;;19.60;39.37
21086;BME280;34247;50.064;19.970;2023-04-24T05:47:43;98304.56;;;19.82;39.54
21086;BME280;34247;50.064;19.970;2023-04-24T05:48:56;98304.38;;;19.98;38.59
21086;BME280;34247;50.064;19.970;2023-04-24T05:50:00;98297.78;;;20.01;36.99
21086;BME280;34247;50.064;19.970;2023-04-24T05:51:04;98299.84;;;20.20;38.59
21086;BME280;34247;50.064;19.970;2023-04-24T05:52:08;98300.19;;;20.47;37.77
21086;BME280;34247;50.064;19.970;2023-04-24T05:53:12;98296.34;;;20.56;36.94
21086;BME280;34247;50.064;19.970;2023-04-24T05:54:16;98301.09;;;20.75;36.96
21086;BME280;34247;50.064;19.970;2023-04-24T05:55:20;98294.44;;;20.99;37.21
21086;BME280;34247;50.064;19.970;2023-04-24T05:56:24;98292.28;;;20.88;35.20
21086;BME280;34247;50.064;19.970;2023-04-24T05:57:28;98291.53;;;20.73;35.11
21086;BME280;34247;50.064;19.970;2023-04-24T05:58:33;98286.78;;;20.75;35.22
21086;BME280;34247;50.064;19.970;2023-04-24T05:59:38;98284.72;;;20.77;35.41
21086;BME280;34247;50.064;19.970;2023-04-24T06:01:01;98289.88;;;21.00;35.68
21086;BME280;34247;50.064;19.970;2023-04-24T06:02:07;98281.22;;;21.04;35.09
21086;BME280;34247;50.064;19.970;2023-04-24T06:03:15;98289.97;;;21.34;36.02
21086;BME280;34247;50.064;19.970;2023-04-24T06:04:27;98293.91;;;21.32;34.56
21086;BME280;34247;50.064;19.970;2023-04-24T06:05:32;98284.97;;;21.59;35.31
21086;BME280;34247;50.064;19.970;2023-04-24T06:06:36;98291.66;;;21.70;34.75
21086;BME280;34247;50.064;19.970;2023-04-24T06:07:40;98288.16;;;21.76;34.61
21086;BME280;34247;50.064;19.970;2023-04-24T06:08:44;98282.00;;;21.95;34.45
21086;BME280;34247;50.064;19.970;2023-04-24T06:09:48;98277.88;;;22.06;34.16
21086;BME280;34247;50.064;19.970;2023-04-24T06:10:53;98283.59;;;22.24;34.50
21086;BME280;34247;50.064;19.970;2023-04-24T06:11:57;98282.63;;;22.45;33.90
21086;BME280;34247;50.064;19.970;2023-04-24T06:13:02;98284.28;;;22.46;33.07
21086;BME280;34247;50.064;19.970;2023-04-24T06:14:06;98278.88;;;22.60;33.37
21086;BME280;34247;50.064;19.970;2023-04-24T06:15:10;98279.72;;;22.53;33.15
21086;BME280;34247;50.064;19.970;2023-04-24T06:16:14;98287.00;;;22.53;33.22
21086;BME280;34247;50.064;19.970;2023-04-24T06:17:21;98283.06;;;22.69;33.13
21086;BME280;34247;50.064;19.970;2023-04-24T06:18:26;98282.88;;;22.83;32.58
21086;BME280;34247;50.064;19.970;2023-04-24T06:19:30;98278.28;;;22.84;32.41
21086;BME280;34247;50.064;19.970;2023-04-24T06:20:34;98281.03;;;22.91;32.76
21086;BME280;34247;50.064;19.970;2023-04-24T06:21:41;98274.97;;;23.15;32.03
21086;BME280;34247;50.064;19.970;2023-04-24T06:22:45;98271.88;;;23.18;32.15
21086;BME280;34247;50.064;19.970;2023-04-24T06:23:49;98275.19;;;23.20;31.77
21086;BME280;34247;50.064;19.970;2023-04-24T06:24:53;98271.41;;;23.48;31.90
21086;BME280;34247;50.064;19.970;2023-04-24T06:25:58;98268.84;;;23.73;31.04
21086;BME280;34247;50.064;19.970;2023-04-24T06:27:03;98270.00;;;23.97;30.87
21086;BME280;34247;50.064;19.970;2023-04-24T06:28:07;98267.19;;;24.23;30.24
21086;BME280;34247;50.064;19.970;2023-04-24T06:29:11;98269.03;;;24.36;30.55
21086;BME280;34247;50.064;19.970;2023-04-24T06:30:15;98269.16;;;24.47;30.65
21086;BME280;34247;50.064;19.970;2023-04-24T06:31:20;98273.63;;;24.67;29.79
21086;BME280;34247;50.064;19.970;2023-04-24T06:32:25;98266.50;;;24.97;30.05
21086;BME280;34247;50.064;19.970;2023-04-24T06:33:29;98262.97;;;25.22;30.02
21086;BME280;34247;50.064;19.970;2023-04-24T06:34:35;98263.16;;;25.45;29.18
21086;BME280;34247;50.064;19.970;2023-04-24T06:35:40;98264.41;;;25.86;28.97
21086;BME280;34247;50.064;19.970;2023-04-24T06:36:44;98253.19;;;26.12;28.37
21086;BME280;34247;50.064;19.970;2023-04-24T06:37:49;98256.22;;;26.23;27.76
21086;BME280;34247;50.064;19.970;2023-04-24T06:38:53;98251.13;;;26.26;27.43
21086;BME280;34247;50.064;19.970;2023-04-24T06:39:57;98241.81;;;26.34;27.52
21086;BME280;34247;50.064;19.970;2023-04-24T06:41:01;98256.22;;;26.53;27.22
21086;BME280;34247;50.064;19.970;2023-04-24T06:42:07;98251.31;;;26.85;27.29
21086;BME280;34247;50.064;19.970;2023-04-24T06:43:15;98249.41;;;26.74;26.57
21086;BME280;34247;50.064;19.970;2023-04-24T06:44:19;98244.28;;;27.07;26.82
21086;BME280;34247;50.064;19.970;2023-04-24T06:45:23;98251.22;;;26.91;26.03
21086;BME280;34247;50.064;19.970;2023-04-24T06:46:27;98251.25;;;27.15;26.41
21086;BME280;34247;50.064;19.970;2023-04-24T06:47:31;98247.34;;;27.23;26.25
21086;BME280;34247;50.064;19.970;2023-04-24T06:48:35;98238.00;;;27.42;25.79
21086;BME280;34247;50.064;19.970;2023-04-24T06:49:39;98242.28;;;27.26;25.38
21086;BME280;34247;50.064;19.970;2023-04-24T06:50:44;98246.38;;;27.52;25.50
21086;BME280;34247;50.064;19.970;2023-04-24T06:51:48;98240.50;;;27.95;25.18
21086;BME280;34247;50.064;19.970;2023-04-24T06:52:52;98238.81;;;28.18;25.13
21086;BME280;34247;50.064;19.970;2023-04-24T06:53:57;98236.63;;;28.32;24.77
21086;BME280;34247;50.064;19.970;2023-04-24T06:55:02;98244.19;;;28.58;24.76
21086;BME280;34247;50.064;19.970;2023-04-24T06:56:07;98235.03;;;28.64;24.31
21086;BME280;34247;50.064;19.970;2023-04-24T06:57:14;98248.53;;;28.88;24.30